createdAt,value
2023-11-16T00:00:19.685Z,1.80
2023-11-16T00:03:24.489Z,1.40
2023-11-16T00:06:28.456Z,1.27
2023-11-16T00:09:31.748Z,1.63
2023-11-16T00:12:34.928Z,1.35
2023-11-16T00:15:39.792Z,1.20
2023-11-16T00:18:45.244Z,1.53
2023-11-16T00:21:48.520Z,1.83
2023-11-16T00:24:54.181Z,1.60
2023-11-16T00:27:57.413Z,1.17
2023-11-16T00:31:01.866Z,1.27
2023-11-16T00:34:04.895Z,1.57
2023-11-16T00:37:08.075Z,1.60
2023-11-16T00:40:15.475Z,1.63
2023-11-16T00:43:18.825Z,1.33
2023-11-16T00:46:23.358Z,1.42
2023-11-16T00:49:27.159Z,2.20
2023-11-16T00:52:30.324Z,1.60
2023-11-16T00:55:33.567Z,0.93
2023-11-16T00:58:42.566Z,1.70
2023-11-16T01:01:46.137Z,1.45
2023-11-16T01:04:49.348Z,0.90
2023-11-16T01:07:53.689Z,1.33
2023-11-16T01:11:02.904Z,1.38
2023-11-16T01:14:09.882Z,0.98
2023-11-16T01:17:28.046Z,1.23
2023-11-16T01:20:36.253Z,1.40
2023-11-16T01:23:40.804Z,1.20
2023-11-16T01:26:44.858Z,1.10
2023-11-16T01:29:50.866Z,1.27
2023-11-16T01:32:55.759Z,0.90
2023-11-16T01:36:02.264Z,1.03
2023-11-16T01:39:06.060Z,1.10
2023-11-16T01:42:11.242Z,1.33
2023-11-16T01:45:45.386Z,1.20
2023-11-16T01:48:50.726Z,1.10
2023-11-16T01:51:59.053Z,1.00
2023-11-16T01:55:05.860Z,1.60
2023-11-16T01:58:10.889Z,1.17
2023-11-16T02:01:14.534Z,1.30
2023-11-16T02:04:18.136Z,2.08
2023-11-16T02:07:22.824Z,1.80
2023-11-16T02:10:26.917Z,1.30
2023-11-16T02:13:30.337Z,1.50
2023-11-16T02:16:40.621Z,1.67
2023-11-16T02:19:44.602Z,1.83
2023-11-16T02:22:54.312Z,1.67
2023-11-16T02:25:58.100Z,1.20
2023-11-16T02:29:01.727Z,1.40
2023-11-16T02:32:05.540Z,1.25
2023-11-16T02:35:10.223Z,1.30
2023-11-16T02:38:14.190Z,1.57
2023-11-16T02:41:17.881Z,1.50
2023-11-16T02:44:22.523Z,1.65
2023-11-16T02:47:26.020Z,1.50
2023-11-16T02:50:29.257Z,1.35
2023-11-16T02:53:32.472Z,1.20
2023-11-16T02:56:36.314Z,1.60
2023-11-16T02:59:39.627Z,1.20
2023-11-16T03:02:50.481Z,1.30
2023-11-16T03:05:53.679Z,1.40
2023-11-16T03:08:57.934Z,1.13
2023-11-16T03:12:02.618Z,1.07
2023-11-16T03:15:06.637Z,1.15
2023-11-16T03:18:10.336Z,1.63
2023-11-16T03:21:18.600Z,1.95
2023-11-16T03:24:21.842Z,1.20
2023-11-16T03:27:25.720Z,1.30
2023-11-16T03:30:31.830Z,1.50
2023-11-16T03:33:37.613Z,1.30
2023-11-16T03:36:41.158Z,1.85
2023-11-16T03:39:47.240Z,2.33
2023-11-16T03:42:52.393Z,2.07
2023-11-16T03:45:56.010Z,1.55
2023-11-16T03:49:04.918Z,2.00
2023-11-16T03:52:08.421Z,1.15
2023-11-16T03:55:11.627Z,1.33
2023-11-16T03:58:16.246Z,1.37
2023-11-16T04:01:20.515Z,1.40
2023-11-16T04:04:30.378Z,1.30
2023-11-16T04:07:35.674Z,1.23
2023-11-16T04:10:39.209Z,1.73
2023-11-16T04:13:44.739Z,1.10
2023-11-16T04:16:54.101Z,1.48
2023-11-16T04:20:01.007Z,1.20
2023-11-16T04:23:07.228Z,1.48
2023-11-16T04:26:11.416Z,2.00
2023-11-16T04:29:17.747Z,1.10
2023-11-16T04:32:25.091Z,1.38
2023-11-16T04:35:28.938Z,1.38
2023-11-16T04:38:32.310Z,1.20
2023-11-16T04:41:37.819Z,1.33
2023-11-16T04:44:46.420Z,2.10
2023-11-16T04:47:50.252Z,1.58
2023-11-16T04:50:57.223Z,1.92
2023-11-16T04:54:00.594Z,1.42
2023-11-16T04:57:04.038Z,1.77
2023-11-16T05:00:12.021Z,1.43
2023-11-16T05:03:15.152Z,1.50
2023-11-16T05:06:18.603Z,1.50
2023-11-16T05:12:34.015Z,1.40
2023-11-16T05:15:41.052Z,1.20
2023-11-16T05:18:44.420Z,1.40
2023-11-16T05:21:48.313Z,1.52
2023-11-16T05:24:51.588Z,2.22
2023-11-16T05:27:54.989Z,1.70
2023-11-16T05:30:58.316Z,1.67
2023-11-16T05:34:02.109Z,2.30
2023-11-16T05:37:09.262Z,2.58
2023-11-16T05:40:14.487Z,2.17
2023-11-16T05:43:22.519Z,2.43
2023-11-16T05:46:42.066Z,1.70
2023-11-16T05:49:47.325Z,2.20
2023-11-16T05:52:56.790Z,1.80
2023-11-16T05:56:01.911Z,2.50
2023-11-16T05:59:12.909Z,1.90
2023-11-16T06:02:18.718Z,2.47
2023-11-16T06:05:28.078Z,3.05
2023-11-16T06:08:39.797Z,4.22
2023-11-16T06:11:48.806Z,3.28
2023-11-16T06:14:56.488Z,2.50
2023-11-16T06:18:04.155Z,1.87
2023-11-16T06:21:07.827Z,2.50
2023-11-16T06:24:11.638Z,2.22
2023-11-16T06:27:21.642Z,4.68
2023-11-16T06:30:30.936Z,5.73
2023-11-16T06:33:34.371Z,4.47
2023-11-16T06:36:47.965Z,3.63
2023-11-16T06:39:56.901Z,3.15
2023-11-16T06:43:07.607Z,1.92
2023-11-16T06:46:14.761Z,2.47
2023-11-16T06:49:18.166Z,1.70
2023-11-16T06:52:42.031Z,2.15
2023-11-16T06:55:54.073Z,2.17
2023-11-16T06:59:01.746Z,2.10
2023-11-16T07:02:10.432Z,2.87
2023-11-16T07:05:25.450Z,2.30
2023-11-16T07:12:49.181Z,2.10
2023-11-16T07:16:04.436Z,2.05
2023-11-16T07:19:17.796Z,2.00
2023-11-16T07:22:22.315Z,2.13
2023-11-16T07:25:35.567Z,1.83
2023-11-16T07:28:43.607Z,2.42
2023-11-16T07:31:50.867Z,1.75
2023-11-16T07:35:00.286Z,1.97
2023-11-16T07:38:10.295Z,1.40
2023-11-16T07:41:15.941Z,1.63
2023-11-16T07:44:22.935Z,1.20
2023-11-16T07:47:53.595Z,1.60
2023-11-16T07:50:58.913Z,1.57
2023-11-16T07:54:08.229Z,1.60
2023-11-16T07:57:25.973Z,1.25
2023-11-16T08:00:57.337Z,1.40
2023-11-16T08:04:01.233Z,1.30
2023-11-16T08:07:05.379Z,2.03
2023-11-16T08:10:11.270Z,2.20
2023-11-16T08:13:20.644Z,1.70
2023-11-16T08:16:25.508Z,1.33
2023-11-16T08:19:33.374Z,1.48
2023-11-16T08:22:38.897Z,1.33
2023-11-16T08:25:49.484Z,1.30
2023-11-16T08:28:57.190Z,1.27
2023-11-16T08:32:06.936Z,0.98
2023-11-16T08:35:24.724Z,0.73
2023-11-16T08:38:29.481Z,1.40
2023-11-16T08:41:36.961Z,1.40
2023-11-16T08:44:41.074Z,1.23
2023-11-16T08:47:53.178Z,1.75
2023-11-16T08:51:11.243Z,1.77
2023-11-16T08:54:15.519Z,6.68
2023-11-16T08:57:23.054Z,4.33
2023-11-16T09:00:33.339Z,2.63
2023-11-16T09:03:37.996Z,2.15
2023-11-16T09:07:03.175Z,1.30
2023-11-16T09:10:14.342Z,1.63
2023-11-16T09:13:21.462Z,0.60
2023-11-16T09:16:27.482Z,0.50
2023-11-16T09:19:34.843Z,0.40
2023-11-16T09:22:43.608Z,1.20
2023-11-16T09:25:46.740Z,2.30
2023-11-16T09:29:07.699Z,2.63
2023-11-16T09:32:23.289Z,1.25
2023-11-16T09:35:32.669Z,1.20
2023-11-16T09:38:41.300Z,0.60
2023-11-16T09:41:52.535Z,0.40
2023-11-16T09:45:04.762Z,0.70
2023-11-16T09:48:37.610Z,0.80
2023-11-16T09:51:57.638Z,0.68
2023-11-16T09:55:08.337Z,0.85
2023-11-16T09:58:23.856Z,0.93
2023-11-16T10:01:40.192Z,1.10
2023-11-16T10:04:48.953Z,0.70
2023-11-16T10:07:58.252Z,0.70
2023-11-16T10:11:06.987Z,1.13
2023-11-16T10:14:11.215Z,0.98
2023-11-16T10:17:14.481Z,0.60
2023-11-16T10:20:25.124Z,1.00
2023-11-16T10:23:28.569Z,0.70
2023-11-16T10:26:36.507Z,0.90
2023-11-16T10:29:43.083Z,0.90
2023-11-16T10:32:51.606Z,0.80
2023-11-16T10:35:57.226Z,0.98
2023-11-16T10:39:02.833Z,0.63
2023-11-16T10:42:11.158Z,1.13
2023-11-16T10:45:28.127Z,0.93
2023-11-16T10:48:36.519Z,0.47
2023-11-16T10:51:56.950Z,0.85
2023-11-16T10:55:24.041Z,0.80
2023-11-16T10:58:37.260Z,0.85
2023-11-16T11:01:49.306Z,0.80
2023-11-16T11:04:55.681Z,0.90
2023-11-16T11:08:09.265Z,0.88
2023-11-16T11:11:26.060Z,0.63
2023-11-16T11:14:30.784Z,0.98
2023-11-16T11:17:46.810Z,0.80
2023-11-16T11:21:17.901Z,0.70
2023-11-16T11:24:30.889Z,0.80
2023-11-16T11:27:43.150Z,0.45
2023-11-16T11:31:01.084Z,0.60
2023-11-16T11:34:15.439Z,0.90
2023-11-16T11:37:43.108Z,0.73
2023-11-16T11:40:56.831Z,1.00
2023-11-16T11:44:09.539Z,0.77
2023-11-16T11:47:16.340Z,0.70
2023-11-16T11:50:22.877Z,1.38
2023-11-16T11:53:31.053Z,0.87
2023-11-16T11:56:39.601Z,1.27
2023-11-16T11:59:47.192Z,0.90
2023-11-16T12:02:51.856Z,0.77
2023-11-16T12:06:01.933Z,0.70
2023-11-16T12:09:05.272Z,1.20
2023-11-16T12:12:11.144Z,1.05
2023-11-16T12:15:19.514Z,1.40
2023-11-16T12:18:24.652Z,0.70
2023-11-16T12:21:28.639Z,0.80
2023-11-16T12:24:34.531Z,1.00
2023-11-16T12:27:45.730Z,0.98
2023-11-16T12:30:57.445Z,0.70
2023-11-16T12:34:08.042Z,0.98
2023-11-16T12:37:12.317Z,0.90
2023-11-16T12:40:20.964Z,0.70
2023-11-16T12:43:29.372Z,0.88
2023-11-16T12:46:54.799Z,0.88
2023-11-16T12:50:00.135Z,1.05
2023-11-16T12:53:05.329Z,1.00
2023-11-16T12:56:13.659Z,0.57
2023-11-16T12:59:19.256Z,0.55
2023-11-16T13:02:23.915Z,1.02
2023-11-16T13:05:28.438Z,0.70
2023-11-16T13:08:40.721Z,1.27
2023-11-16T13:11:50.565Z,0.70
2023-11-16T13:14:54.155Z,0.90
2023-11-16T13:17:57.229Z,0.90
2023-11-16T13:21:05.622Z,0.70
2023-11-16T13:24:09.588Z,1.20
2023-11-16T13:27:14.354Z,1.20
2023-11-16T13:30:25.728Z,0.73
2023-11-16T13:33:30.963Z,1.20
2023-11-16T13:36:53.377Z,1.08
2023-11-16T13:40:00.507Z,1.20
2023-11-16T13:43:04.406Z,0.90
2023-11-16T13:46:07.777Z,1.02
2023-11-16T13:49:11.970Z,1.02
2023-11-16T13:52:19.302Z,1.10
2023-11-16T13:55:22.597Z,1.20
2023-11-16T13:58:26.475Z,1.40
2023-11-16T14:01:35.867Z,1.65
2023-11-16T14:04:41.759Z,1.38
2023-11-16T14:07:44.925Z,1.13
2023-11-16T14:10:48.195Z,1.33
2023-11-16T14:13:51.345Z,1.53
2023-11-16T14:16:54.960Z,1.65
2023-11-16T14:19:57.986Z,1.10
2023-11-16T14:23:01.306Z,1.50
2023-11-16T14:26:07.327Z,1.77
2023-11-16T14:29:13.276Z,1.50
2023-11-16T14:32:17.368Z,1.77
2023-11-16T14:35:21.906Z,1.50
2023-11-16T14:38:27.428Z,1.02
2023-11-16T14:41:30.669Z,1.43
2023-11-16T14:44:33.844Z,1.40
2023-11-16T14:47:40.124Z,2.40
2023-11-16T14:50:44.216Z,3.00
2023-11-16T14:53:54.639Z,3.25
2023-11-16T14:57:02.997Z,3.17
2023-11-16T15:00:07.609Z,2.50
2023-11-16T15:03:11.201Z,2.58
2023-11-16T15:06:14.493Z,4.00
2023-11-16T15:09:17.884Z,3.53
2023-11-16T15:12:21.040Z,3.73
2023-11-16T15:15:24.434Z,4.57
2023-11-16T15:18:27.703Z,4.65
2023-11-16T15:21:34.438Z,5.45
2023-11-16T15:24:41.039Z,6.25
2023-11-16T15:27:46.750Z,5.97
2023-11-16T15:30:50.135Z,5.40
2023-11-16T15:33:53.645Z,5.00
2023-11-16T15:37:01.983Z,2.40
2023-11-16T15:40:06.957Z,2.78
2023-11-16T15:43:11.021Z,3.13
2023-11-16T15:46:15.961Z,3.10
2023-11-16T15:49:20.681Z,2.88
2023-11-16T15:52:33.953Z,2.97
2023-11-16T15:55:37.059Z,2.85
2023-11-16T15:58:41.457Z,2.67
2023-11-16T16:01:49.260Z,2.80
2023-11-16T16:04:58.536Z,2.05
2023-11-16T16:08:02.777Z,2.47
2023-11-16T16:11:06.484Z,2.22
2023-11-16T16:14:13.192Z,1.83
2023-11-16T16:17:17.498Z,2.70
2023-11-16T16:20:26.070Z,2.22
2023-11-16T16:23:36.934Z,2.17
2023-11-16T16:26:52.716Z,2.35
2023-11-16T16:29:57.472Z,2.60
2023-11-16T16:33:01.518Z,2.43
2023-11-16T16:36:05.676Z,2.60
2023-11-16T16:39:14.564Z,2.55
2023-11-16T16:42:19.753Z,2.80
2023-11-16T16:45:24.587Z,3.80
2023-11-16T16:48:29.596Z,4.27
2023-11-16T16:51:34.136Z,3.17
2023-11-16T16:54:38.003Z,2.80
2023-11-16T16:57:41.494Z,2.53
2023-11-16T17:00:46.944Z,2.23
2023-11-16T17:03:52.731Z,1.90
2023-11-16T17:06:56.227Z,2.10
2023-11-16T17:09:59.654Z,1.67
2023-11-16T17:13:07.937Z,2.00
2023-11-16T17:16:11.386Z,1.97
2023-11-16T17:19:14.684Z,2.03
2023-11-16T17:22:17.813Z,2.05
2023-11-16T17:25:22.937Z,1.50
2023-11-16T17:28:26.822Z,1.98
2023-11-16T17:31:34.917Z,2.37
2023-11-16T17:34:40.314Z,1.80
2023-11-16T17:37:48.786Z,1.95
2023-11-16T17:40:52.138Z,2.25
2023-11-16T17:43:55.712Z,2.60
2023-11-16T17:46:59.702Z,2.97
2023-11-16T17:50:03.103Z,3.83
2023-11-16T17:53:08.093Z,3.83
2023-11-16T17:56:11.746Z,3.63
2023-11-16T17:59:17.856Z,4.03
2023-11-16T18:02:20.837Z,2.90
2023-11-16T18:05:26.023Z,2.43
2023-11-16T18:08:31.739Z,3.10
2023-11-16T18:11:40.225Z,2.63
2023-11-16T18:14:43.568Z,3.33
2023-11-16T18:17:47.414Z,2.93
2023-11-16T18:20:53.331Z,2.40
2023-11-16T18:23:56.812Z,3.08
2023-11-16T18:27:00.469Z,2.33
2023-11-16T18:30:08.553Z,2.75
2023-11-16T18:33:14.170Z,2.30
2023-11-16T18:36:23.263Z,2.30
2023-11-16T18:39:29.276Z,1.90
2023-11-16T18:42:36.687Z,1.77
2023-11-16T18:45:44.445Z,1.85
2023-11-16T18:48:53.878Z,2.17
2023-11-16T18:52:02.748Z,2.23
2023-11-16T18:55:08.844Z,1.60
2023-11-16T18:58:14.649Z,1.92
2023-11-16T19:01:18.380Z,1.73
2023-11-16T19:04:22.685Z,1.40
2023-11-16T19:07:26.266Z,1.63
2023-11-16T19:10:31.972Z,1.70
2023-11-16T19:13:35.256Z,2.35
2023-11-16T19:16:40.421Z,1.92
2023-11-16T19:19:46.940Z,1.67
2023-11-16T19:22:53.293Z,2.07
2023-11-16T19:26:01.581Z,2.10
2023-11-16T19:29:08.218Z,2.13
2023-11-16T19:32:11.772Z,2.00
2023-11-16T19:35:17.332Z,1.87
2023-11-16T19:38:20.949Z,1.70
2023-11-16T19:41:24.698Z,2.13
2023-11-16T19:44:28.619Z,1.95
2023-11-16T19:47:42.967Z,2.08
2023-11-16T19:50:51.305Z,2.40
2023-11-16T19:53:55.758Z,1.63
2023-11-16T19:56:59.914Z,1.92
2023-11-16T20:00:05.914Z,2.35
2023-11-16T20:03:12.724Z,2.30
2023-11-16T20:06:18.282Z,2.33
2023-11-16T20:09:21.837Z,2.30
2023-11-16T20:12:30.300Z,1.98
2023-11-16T20:15:36.793Z,1.98
2023-11-16T20:18:42.515Z,1.80
2023-11-16T20:21:46.275Z,2.53
2023-11-16T20:24:51.424Z,2.17
2023-11-16T20:27:57.929Z,2.28
2023-11-16T20:31:05.035Z,2.63
2023-11-16T20:34:09.783Z,2.33
2023-11-16T20:37:15.812Z,2.57
2023-11-16T20:40:20.319Z,2.70
2023-11-16T20:43:25.256Z,2.50
2023-11-16T20:46:28.671Z,2.38
2023-11-16T20:49:35.943Z,2.50
2023-11-16T20:52:39.203Z,2.33
2023-11-16T20:55:42.772Z,2.10
2023-11-16T20:58:46.203Z,2.30
2023-11-16T21:01:51.046Z,1.83
2023-11-16T21:04:55.276Z,2.50
2023-11-16T21:07:58.586Z,2.00
2023-11-16T21:11:05.446Z,2.27
2023-11-16T21:14:11.805Z,1.85
2023-11-16T21:17:17.134Z,2.00
2023-11-16T21:20:22.887Z,2.33
2023-11-16T21:23:26.143Z,2.27
2023-11-16T21:26:30.596Z,1.97
2023-11-16T21:29:34.635Z,2.10
2023-11-16T21:32:39.510Z,2.33
2023-11-16T21:35:42.929Z,2.05
2023-11-16T21:38:45.777Z,2.50
2023-11-16T21:41:48.720Z,2.13
2023-11-16T21:44:53.422Z,2.30
2023-11-16T21:47:57.154Z,2.70
2023-11-16T21:51:00.210Z,2.00
2023-11-16T21:54:05.540Z,2.30
2023-11-16T21:57:08.817Z,1.40
2023-11-16T22:00:15.223Z,2.08
2023-11-16T22:03:18.168Z,2.25
2023-11-16T22:06:22.879Z,2.40
2023-11-16T22:09:26.023Z,2.13
2023-11-16T22:12:32.562Z,1.90
2023-11-16T22:15:36.650Z,2.35
2023-11-16T22:18:42.808Z,2.22
2023-11-16T22:21:46.047Z,1.80
2023-11-16T22:24:50.093Z,2.53
2023-11-16T22:27:56.136Z,3.10
2023-11-16T22:30:59.947Z,2.15
2023-11-16T22:34:04.397Z,2.00
2023-11-16T22:37:07.205Z,2.13
2023-11-16T22:40:11.876Z,2.17
2023-11-16T22:43:14.883Z,1.90
2023-11-16T22:46:18.270Z,2.22
2023-11-16T22:49:23.830Z,2.58
2023-11-16T22:52:27.289Z,2.10
2023-11-16T22:55:30.911Z,2.33
2023-11-16T22:58:34.923Z,2.47
2023-11-16T23:01:40.270Z,1.75
2023-11-16T23:04:44.837Z,2.10
2023-11-16T23:07:49.095Z,2.08
2023-11-16T23:10:53.953Z,1.60
2023-11-16T23:13:57.010Z,2.27
2023-11-16T23:17:00.272Z,2.50
2023-11-16T23:20:06.758Z,2.75
2023-11-16T23:23:10.323Z,2.00
2023-11-16T23:26:13.302Z,3.03
2023-11-16T23:29:21.130Z,2.10
2023-11-16T23:32:24.342Z,2.42
2023-11-16T23:35:27.397Z,1.88
2023-11-16T23:38:30.320Z,1.95
2023-11-16T23:41:33.452Z,2.07
2023-11-16T23:44:37.606Z,2.00
2023-11-16T23:47:41.540Z,2.33
2023-11-16T23:50:44.996Z,3.00
2023-11-16T23:53:47.887Z,2.45
2023-11-16T23:56:51.066Z,2.07
2023-11-16T23:59:54.501Z,2.20
